createdAt,value
2019-04-04T00:01:18.374Z,60.72
2019-04-04T00:03:51.784Z,61.07
2019-04-04T00:06:23.300Z,61.58
2019-04-04T00:08:55.379Z,62.71
2019-04-04T00:11:26.440Z,64.23
2019-04-04T00:13:57.452Z,61.51
2019-04-04T00:16:28.422Z,60.52
2019-04-04T00:18:59.643Z,61.33
2019-04-04T00:21:32.036Z,59.86
2019-04-04T00:24:03.589Z,59.95
2019-04-04T00:26:34.626Z,60.29
2019-04-04T00:29:05.799Z,61.08
2019-04-04T00:31:36.872Z,60.36
2019-04-04T00:34:07.880Z,63.08
2019-04-04T00:36:39.097Z,61.59
2019-04-04T00:39:10.127Z,61.39
2019-04-04T00:41:41.195Z,61.97
2019-04-04T00:44:12.336Z,61.44
2019-04-04T00:46:43.402Z,61.75
2019-04-04T00:49:14.518Z,60.13
2019-04-04T00:51:45.730Z,63.53
2019-04-04T00:54:16.731Z,62.59
2019-04-04T00:56:48.775Z,61.92
2019-04-04T00:59:22.761Z,62.90
2019-04-04T01:01:52.702Z,61.92
2019-04-04T01:04:24.117Z,61.77
2019-04-04T01:06:55.101Z,62.01
2019-04-04T01:09:26.149Z,63.54
2019-04-04T01:11:57.150Z,62.91
2019-04-04T01:14:29.225Z,61.91
2019-04-04T01:17:02.057Z,62.64
2019-04-04T01:19:33.577Z,62.74
2019-04-04T01:22:04.632Z,62.62
2019-04-04T01:24:36.067Z,62.17
2019-04-04T01:27:07.133Z,62.01
2019-04-04T01:29:39.017Z,63.43
2019-04-04T01:32:10.842Z,62.60
2019-04-04T01:34:41.914Z,61.75
2019-04-04T01:37:12.893Z,61.29
2019-04-04T01:39:43.982Z,61.69
2019-04-04T01:42:15.057Z,61.00
2019-04-04T01:44:46.093Z,61.18
2019-04-04T01:47:17.643Z,61.64
2019-04-04T01:49:49.926Z,62.14
2019-04-04T01:52:21.505Z,63.76
2019-04-04T01:54:52.510Z,63.58
2019-04-04T01:57:23.597Z,62.87
2019-04-04T01:59:54.845Z,62.13
2019-04-04T02:02:25.970Z,61.54
2019-04-04T02:04:57.033Z,64.85
2019-04-04T02:07:29.845Z,63.08
2019-04-04T02:10:00.776Z,62.44
2019-04-04T02:12:32.141Z,64.21
2019-04-04T02:15:03.209Z,64.37
2019-04-04T02:17:34.197Z,64.25
2019-04-04T02:20:05.685Z,62.74
2019-04-04T02:22:36.649Z,61.72
2019-04-04T02:25:08.088Z,63.15
2019-04-04T02:27:39.209Z,66.73
2019-04-04T02:30:14.859Z,64.23
2019-04-04T02:32:43.380Z,63.58
2019-04-04T02:35:14.928Z,63.96
2019-04-04T02:37:45.989Z,61.88
2019-04-04T02:40:17.341Z,61.52
2019-04-04T02:42:48.283Z,61.42
2019-04-04T02:45:19.399Z,62.22
2019-04-04T02:47:51.433Z,62.61
2019-04-04T02:50:22.531Z,61.97
2019-04-04T02:52:53.534Z,66.69
2019-04-04T02:55:24.679Z,63.79
2019-04-04T02:57:55.752Z,62.47
2019-04-04T03:00:27.834Z,62.31
2019-04-04T03:02:59.213Z,61.67
2019-04-04T03:05:30.573Z,64.42
2019-04-04T03:08:04.269Z,64.73
2019-04-04T03:10:34.730Z,64.02
2019-04-04T03:13:05.874Z,64.39
2019-04-04T03:15:41.001Z,62.87
2019-04-04T03:18:10.108Z,62.58
2019-04-04T03:20:41.192Z,65.51
2019-04-04T03:23:12.175Z,64.77
2019-04-04T03:25:44.634Z,62.86
2019-04-04T03:28:15.873Z,67.06
2019-04-04T03:30:52.546Z,65.31
2019-04-04T03:33:19.797Z,66.08
2019-04-04T03:35:50.803Z,65.58
2019-04-04T03:38:21.814Z,66.80
2019-04-04T03:40:57.289Z,64.61
2019-04-04T03:43:25.617Z,64.67
2019-04-04T03:46:00.338Z,65.49
2019-04-04T03:48:29.356Z,65.00
2019-04-04T03:51:03.638Z,68.96
2019-04-04T03:53:33.065Z,68.44
2019-04-04T03:56:04.345Z,67.15
2019-04-04T03:58:35.408Z,70.31
2019-04-04T04:01:06.459Z,69.16
2019-04-04T04:03:37.535Z,68.46
2019-04-04T04:06:09.745Z,66.37
2019-04-04T04:08:40.919Z,69.77
2019-04-04T04:11:12.007Z,69.35
2019-04-04T04:13:42.989Z,71.73
2019-04-04T04:16:13.983Z,70.67
2019-04-04T04:18:45.039Z,69.45
2019-04-04T04:21:16.076Z,66.47
2019-04-04T04:23:49.882Z,67.04
2019-04-04T04:26:19.897Z,71.16
2019-04-04T04:28:53.214Z,72.29
2019-04-04T04:31:24.754Z,71.92
2019-04-04T04:33:55.780Z,70.71
2019-04-04T04:36:27.002Z,70.75
2019-04-04T04:39:00.008Z,70.04
2019-04-04T04:41:30.768Z,69.96
2019-04-04T04:44:02.890Z,70.58
2019-04-04T04:46:35.722Z,71.27
2019-04-04T04:49:06.817Z,73.12
2019-04-04T04:51:37.894Z,72.18
2019-04-04T04:54:08.897Z,70.33
2019-04-04T04:56:39.900Z,71.44
2019-04-04T04:59:12.879Z,70.21
2019-04-04T05:01:43.662Z,70.24
2019-04-04T05:04:14.641Z,69.62
2019-04-04T05:06:45.831Z,68.91
2019-04-04T05:09:16.858Z,73.75
2019-04-04T05:11:50.322Z,74.12
2019-04-04T05:14:20.924Z,71.56
2019-04-04T05:16:52.049Z,73.22
2019-04-04T05:19:23.030Z,72.68
2019-04-04T05:21:55.013Z,70.11
2019-04-04T05:24:26.051Z,70.93
2019-04-04T05:26:57.106Z,71.67
2019-04-04T05:29:28.195Z,71.94
2019-04-04T05:31:59.201Z,71.35
2019-04-04T05:34:30.958Z,71.80
2019-04-04T05:37:02.026Z,70.50
2019-04-04T05:39:33.099Z,71.94
2019-04-04T05:42:04.362Z,71.86
2019-04-04T05:44:35.401Z,74.46
2019-04-04T05:47:06.684Z,71.98
2019-04-04T05:49:38.227Z,70.25
2019-04-04T05:52:09.841Z,69.82
2019-04-04T05:54:40.907Z,73.95
2019-04-04T05:57:11.987Z,72.52
2019-04-04T05:59:42.978Z,72.77
2019-04-04T06:02:14.027Z,71.12
2019-04-04T06:04:45.149Z,73.18
2019-04-04T06:07:16.583Z,72.12
2019-04-04T06:09:48.679Z,72.06
2019-04-04T06:12:19.729Z,73.15
2019-04-04T06:14:50.704Z,75.53
2019-04-04T06:17:21.731Z,74.41
2019-04-04T06:19:52.808Z,72.16
2019-04-04T06:22:23.876Z,71.71
2019-04-04T06:24:54.869Z,71.92
2019-04-04T06:27:25.968Z,72.60
2019-04-04T06:29:57.089Z,71.05
2019-04-04T06:32:29.067Z,70.48
2019-04-04T06:35:01.266Z,71.29
2019-04-04T06:37:34.270Z,72.00
2019-04-04T06:40:05.707Z,70.97
2019-04-04T06:42:37.729Z,69.89
2019-04-04T06:45:08.870Z,70.18
2019-04-04T06:47:39.940Z,70.43
2019-04-04T06:50:11.365Z,71.00
2019-04-04T06:52:42.375Z,69.02
2019-04-04T06:55:13.610Z,69.21
2019-04-04T06:57:44.685Z,70.52
2019-04-04T07:00:16.749Z,70.44
2019-04-04T07:02:47.834Z,70.83
2019-04-04T07:05:18.925Z,70.77
2019-04-04T07:07:50.096Z,67.54
2019-04-04T07:10:22.007Z,69.38
2019-04-04T07:13:09.332Z,69.94
2019-04-04T07:15:25.978Z,71.48
2019-04-04T07:17:56.987Z,70.58
2019-04-04T07:20:28.522Z,70.83
2019-04-04T07:22:59.828Z,72.77
2019-04-04T07:25:30.961Z,70.06
2019-04-04T07:28:02.019Z,67.44
2019-04-04T07:30:33.261Z,66.00
2019-04-04T07:33:04.350Z,65.58
2019-04-04T07:35:35.329Z,66.98
2019-04-04T07:38:06.317Z,66.75
2019-04-04T07:40:37.493Z,67.37
2019-04-04T07:43:08.823Z,66.76
2019-04-04T07:45:40.053Z,64.59
2019-04-04T07:48:12.320Z,65.54
2019-04-04T07:50:43.519Z,64.04
2019-04-04T07:53:14.562Z,62.24
2019-04-04T07:55:45.588Z,63.93
2019-04-04T07:58:16.564Z,63.99
2019-04-04T08:00:47.816Z,61.35
2019-04-04T08:03:18.899Z,61.73
2019-04-04T08:05:49.900Z,63.57
2019-04-04T08:08:21.440Z,62.87
2019-04-04T08:10:53.922Z,62.80
2019-04-04T08:13:24.961Z,61.25
2019-04-04T08:15:55.999Z,61.06
2019-04-04T08:18:27.147Z,61.63
2019-04-04T08:20:58.166Z,60.30
2019-04-04T08:23:29.281Z,61.03
2019-04-04T08:26:00.249Z,62.34
2019-04-04T08:28:31.416Z,60.90
2019-04-04T08:31:02.434Z,59.74
2019-04-04T08:33:33.516Z,58.76
2019-04-04T08:36:06.204Z,59.48
2019-04-04T08:38:37.623Z,59.70
2019-04-04T08:41:08.765Z,57.60
2019-04-04T08:43:39.788Z,57.32
2019-04-04T08:46:10.919Z,57.49
2019-04-04T08:48:42.018Z,55.65
2019-04-04T08:51:13.105Z,55.26
2019-04-04T08:53:44.122Z,55.39
2019-04-04T08:56:15.119Z,53.28
2019-04-04T08:58:46.165Z,52.20
2019-04-04T09:01:17.192Z,54.06
2019-04-04T09:03:48.226Z,52.38
2019-04-04T09:06:19.238Z,53.95
2019-04-04T09:08:50.245Z,51.92
2019-04-04T09:11:21.514Z,50.63
2019-04-04T09:13:52.636Z,50.86
2019-04-04T09:16:23.634Z,50.57
2019-04-04T09:18:54.649Z,50.70
2019-04-04T09:21:25.706Z,52.26
2019-04-04T09:23:56.757Z,50.87
2019-04-04T09:26:27.780Z,50.62
2019-04-04T09:28:58.945Z,53.01
2019-04-04T09:31:30.071Z,53.26
2019-04-04T09:34:01.165Z,52.41
2019-04-04T09:36:32.258Z,52.52
2019-04-04T09:39:05.780Z,54.34
2019-04-04T09:41:36.798Z,52.67
2019-04-04T09:44:07.879Z,53.28
2019-04-04T09:46:39.043Z,53.97
2019-04-04T09:49:12.843Z,55.20
2019-04-04T09:51:42.826Z,55.62
2019-04-04T09:54:13.940Z,55.40
2019-04-04T09:56:45.024Z,54.85
2019-04-04T09:59:16.158Z,53.77
2019-04-04T10:01:47.255Z,52.26
2019-04-04T10:04:18.446Z,51.37
2019-04-04T10:06:49.464Z,50.99
2019-04-04T10:09:20.653Z,51.56
2019-04-04T10:11:51.671Z,49.61
2019-04-04T10:14:22.769Z,50.87
2019-04-04T10:16:54.039Z,51.57
2019-04-04T10:19:25.079Z,54.01
2019-04-04T10:21:56.160Z,54.84
2019-04-04T10:24:27.201Z,54.44
2019-04-04T10:26:58.222Z,54.10
2019-04-04T10:29:29.278Z,51.94
2019-04-04T10:32:00.289Z,52.49
2019-04-04T10:34:31.405Z,53.43
2019-04-04T10:37:02.399Z,51.74
2019-04-04T10:39:33.440Z,50.95
2019-04-04T10:42:04.654Z,49.28
2019-04-04T10:44:37.162Z,52.86
2019-04-04T10:47:08.615Z,51.34
2019-04-04T10:49:39.742Z,51.99
2019-04-04T10:52:10.818Z,54.23
2019-04-04T10:54:41.856Z,53.56
2019-04-04T10:57:12.995Z,52.56
2019-04-04T10:59:44.258Z,53.18
2019-04-04T11:02:15.707Z,54.21
2019-04-04T11:04:46.808Z,53.13
2019-04-04T11:07:17.910Z,52.49
2019-04-04T11:09:49.057Z,51.45
2019-04-04T11:12:20.055Z,51.82
2019-04-04T11:14:51.186Z,51.87
2019-04-04T11:17:22.330Z,53.44
2019-04-04T11:19:53.370Z,52.22
2019-04-04T11:22:24.544Z,53.86
2019-04-04T11:24:55.557Z,53.17
2019-04-04T11:27:26.674Z,52.90
2019-04-04T11:29:57.909Z,54.21
2019-04-04T11:32:29.156Z,52.73
2019-04-04T11:35:00.233Z,52.00
2019-04-04T11:37:31.277Z,51.05
2019-04-04T11:40:03.439Z,51.86
2019-04-04T11:42:34.459Z,52.87
2019-04-04T11:45:05.784Z,54.33
2019-04-04T11:47:36.863Z,53.03
2019-04-04T11:50:08.798Z,53.61
2019-04-04T11:52:40.867Z,52.63
2019-04-04T11:55:12.137Z,53.07
2019-04-04T11:57:43.142Z,53.69
2019-04-04T12:00:20.033Z,54.05
2019-04-04T12:02:51.120Z,55.69
2019-04-04T12:05:22.172Z,54.93
2019-04-04T12:07:53.180Z,55.24
2019-04-04T12:10:24.308Z,53.04
2019-04-04T12:12:58.336Z,51.68
2019-04-04T12:15:28.288Z,53.17
2019-04-04T12:17:59.304Z,53.86
2019-04-04T12:20:30.395Z,53.39
2019-04-04T12:23:01.388Z,52.19
2019-04-04T12:25:32.493Z,53.30
2019-04-04T12:28:03.573Z,51.49
2019-04-04T12:30:34.603Z,50.95
2019-04-04T12:33:05.703Z,49.27
2019-04-04T12:35:36.711Z,51.17
2019-04-04T12:38:07.732Z,52.13
2019-04-04T12:40:38.841Z,51.29
2019-04-04T12:43:09.832Z,51.69
2019-04-04T12:45:40.865Z,52.54
2019-04-04T12:48:11.889Z,52.89
2019-04-04T12:50:43.004Z,51.36
2019-04-04T12:53:14.069Z,52.39
2019-04-04T12:55:45.118Z,51.18
2019-04-04T12:58:16.185Z,52.04
2019-04-04T13:00:47.207Z,51.16
2019-04-04T13:03:18.240Z,48.68
2019-04-04T13:05:49.333Z,49.58
2019-04-04T13:08:20.487Z,51.26
2019-04-04T13:10:52.735Z,51.34
2019-04-04T13:13:23.643Z,50.20
2019-04-04T13:15:54.676Z,48.97
2019-04-04T13:18:25.736Z,47.75
2019-04-04T13:20:56.854Z,47.81
2019-04-04T13:23:28.012Z,48.18
2019-04-04T13:26:01.403Z,46.94
2019-04-04T13:28:32.389Z,48.06
2019-04-04T13:31:03.425Z,48.26
2019-04-04T13:33:34.417Z,48.71
2019-04-04T13:36:05.599Z,49.10
2019-04-04T13:38:36.604Z,50.10
2019-04-04T13:41:07.735Z,49.34
2019-04-04T13:43:38.686Z,50.51
2019-04-04T13:46:11.108Z,51.14
2019-04-04T13:48:43.524Z,50.66
2019-04-04T13:51:15.300Z,51.36
2019-04-04T13:53:46.345Z,52.02
2019-04-04T13:56:17.442Z,51.09
2019-04-04T13:58:48.515Z,49.89
2019-04-04T14:01:19.536Z,50.96
2019-04-04T14:03:51.063Z,50.54
2019-04-04T14:06:22.083Z,50.09
2019-04-04T14:08:53.091Z,51.35
2019-04-04T14:11:24.209Z,51.86
2019-04-04T14:13:58.833Z,52.05
2019-04-04T14:16:29.353Z,52.39
2019-04-04T14:19:00.377Z,52.65
2019-04-04T14:21:31.404Z,53.57
2019-04-04T14:24:12.331Z,53.37
2019-04-04T14:26:36.338Z,54.92
2019-04-04T14:29:07.532Z,54.26
2019-04-04T14:31:38.546Z,54.42
2019-04-04T14:34:11.671Z,53.67
2019-04-04T14:36:42.269Z,55.64
2019-04-04T14:39:13.274Z,55.19
2019-04-04T14:41:44.362Z,57.26
2019-04-04T14:44:15.661Z,58.66
2019-04-04T14:46:46.864Z,58.07
2019-04-04T14:49:17.871Z,57.88
2019-04-04T14:51:48.947Z,58.54
2019-04-04T14:54:19.931Z,57.90
2019-04-04T14:56:50.965Z,57.19
2019-04-04T14:59:21.948Z,58.31
2019-04-04T15:01:53.047Z,59.76
2019-04-04T15:04:24.055Z,59.62
2019-04-04T15:06:55.058Z,60.08
2019-04-04T15:09:26.120Z,58.87
2019-04-04T15:11:57.095Z,59.18
2019-04-04T15:14:28.333Z,58.97
2019-04-04T15:16:59.359Z,59.26
2019-04-04T15:19:30.351Z,57.77
2019-04-04T15:22:01.379Z,58.14
2019-04-04T15:24:32.448Z,59.05
2019-04-04T15:27:03.562Z,59.21
2019-04-04T15:29:34.642Z,59.18
2019-04-04T15:32:05.960Z,59.80
2019-04-04T15:34:36.992Z,60.03
2019-04-04T15:37:08.048Z,59.48
2019-04-04T15:39:39.050Z,59.66
2019-04-04T15:42:10.069Z,59.31
2019-04-04T15:44:41.133Z,59.40
2019-04-04T15:47:12.439Z,58.30
2019-04-04T15:49:43.525Z,56.97
2019-04-04T15:52:14.519Z,59.50
2019-04-04T15:54:45.650Z,58.10
2019-04-04T15:57:16.839Z,57.80
2019-04-04T15:59:47.919Z,57.61
2019-04-04T16:02:19.151Z,57.53
2019-04-04T16:04:50.615Z,57.30
2019-04-04T16:07:21.675Z,57.51
2019-04-04T16:09:52.673Z,57.20
2019-04-04T16:12:23.670Z,57.72
2019-04-04T16:14:54.726Z,57.34
2019-04-04T16:17:25.722Z,60.34
2019-04-04T16:19:56.696Z,60.47
2019-04-04T16:22:27.704Z,59.71
2019-04-04T16:24:58.680Z,59.43
2019-04-04T16:27:29.759Z,59.40
2019-04-04T16:30:00.759Z,59.25
2019-04-04T16:32:32.817Z,58.85
2019-04-04T16:35:04.008Z,58.52
2019-04-04T16:37:35.019Z,61.69
2019-04-04T16:40:09.234Z,60.15
2019-04-04T16:42:40.349Z,59.93
2019-04-04T16:45:11.582Z,60.39
2019-04-04T16:47:42.668Z,60.30
2019-04-04T16:50:14.578Z,60.70
2019-04-04T16:52:45.751Z,61.63
2019-04-04T16:55:19.568Z,61.89
2019-04-04T16:57:50.878Z,61.45
2019-04-04T17:00:23.596Z,60.75
2019-04-04T17:02:54.919Z,61.15
2019-04-04T17:05:26.064Z,60.33
2019-04-04T17:07:57.075Z,60.79
2019-04-04T17:10:28.388Z,61.24
2019-04-04T17:12:59.789Z,60.13
2019-04-04T17:15:31.302Z,59.80
2019-04-04T17:18:02.768Z,57.83
2019-04-04T17:20:34.229Z,58.52
2019-04-04T17:23:05.597Z,58.78
2019-04-04T17:25:36.635Z,59.47
2019-04-04T17:28:09.039Z,58.87
2019-04-04T17:30:40.689Z,59.18
2019-04-04T17:33:11.841Z,59.38
2019-04-04T17:35:44.152Z,59.81
2019-04-04T17:38:16.452Z,59.97
2019-04-04T17:40:47.913Z,60.42
2019-04-04T17:43:18.951Z,58.53
2019-04-04T17:45:50.551Z,59.50
2019-04-04T17:48:22.221Z,58.05
2019-04-04T17:50:53.765Z,58.37
2019-04-04T17:53:26.047Z,58.21
2019-04-04T17:55:57.111Z,59.01
2019-04-04T17:58:29.876Z,59.08
2019-04-04T18:01:01.590Z,58.91
2019-04-04T18:03:33.043Z,59.95
2019-04-04T18:06:04.542Z,60.13
2019-04-04T18:08:35.734Z,62.33
2019-04-04T18:11:07.041Z,62.42
2019-04-04T18:13:38.179Z,61.93
2019-04-04T18:16:09.309Z,61.90
2019-04-04T18:18:40.955Z,61.14
2019-04-04T18:21:12.096Z,60.38
2019-04-04T18:23:43.343Z,60.82
2019-04-04T18:26:14.804Z,59.26
2019-04-04T18:28:45.869Z,60.32
2019-04-04T18:31:16.876Z,59.53
2019-04-04T18:33:48.251Z,60.66
2019-04-04T18:36:19.616Z,59.79
2019-04-04T18:38:50.954Z,60.80
2019-04-04T18:41:22.004Z,59.62
2019-04-04T18:43:53.095Z,60.29
2019-04-04T18:46:24.134Z,59.55
2019-04-04T18:48:55.224Z,61.49
2019-04-04T18:51:26.390Z,60.76
2019-04-04T18:53:57.461Z,59.57
2019-04-04T18:56:28.558Z,60.31
2019-04-04T18:58:59.999Z,59.31
2019-04-04T19:01:31.156Z,60.17
2019-04-04T19:04:02.166Z,61.33
2019-04-04T19:06:33.355Z,59.80
2019-04-04T19:09:14.838Z,60.18
2019-04-04T19:11:40.633Z,59.37
2019-04-04T19:14:11.624Z,59.30
2019-04-04T19:16:42.703Z,59.35
2019-04-04T19:19:13.712Z,59.93
2019-04-04T19:21:44.706Z,60.39
2019-04-04T19:24:15.764Z,59.72
2019-04-04T19:26:46.919Z,59.02
2019-04-04T19:29:19.365Z,58.77
2019-04-04T19:31:50.378Z,59.76
2019-04-04T19:34:21.374Z,60.11
2019-04-04T19:36:52.362Z,60.15
2019-04-04T19:39:23.384Z,59.30
2019-04-04T19:41:54.374Z,60.30
2019-04-04T19:44:25.403Z,60.25
2019-04-04T19:46:56.456Z,59.75
2019-04-04T19:49:27.486Z,59.41
2019-04-04T19:51:58.490Z,58.50
2019-04-04T19:54:29.572Z,59.81
2019-04-04T19:57:00.850Z,60.17
2019-04-04T19:59:31.946Z,60.51
2019-04-04T20:02:03.111Z,60.74
2019-04-04T20:04:34.389Z,60.50
2019-04-04T20:07:05.810Z,61.23
2019-04-04T20:09:37.171Z,59.65
2019-04-04T20:12:08.306Z,60.84
2019-04-04T20:14:39.346Z,62.08
2019-04-04T20:17:10.459Z,61.62
2019-04-04T20:19:41.615Z,60.17
2019-04-04T20:22:12.736Z,60.33
2019-04-04T20:24:43.777Z,60.85
2019-04-04T20:27:14.994Z,59.92
2019-04-04T20:29:46.083Z,60.43
2019-04-04T20:32:17.340Z,60.07
2019-04-04T20:34:48.478Z,60.12
2019-04-04T20:37:19.545Z,60.21
2019-04-04T20:39:50.682Z,61.30
2019-04-04T20:42:21.818Z,61.37
2019-04-04T20:44:52.921Z,62.25
2019-04-04T20:47:24.004Z,60.95
2019-04-04T20:49:55.131Z,60.42
2019-04-04T20:52:27.471Z,61.57
2019-04-04T20:54:59.025Z,60.19
2019-04-04T20:57:30.303Z,60.63
2019-04-04T21:00:01.368Z,60.76
2019-04-04T21:02:32.856Z,60.74
2019-04-04T21:05:04.262Z,60.26
2019-04-04T21:07:35.336Z,61.26
2019-04-04T21:10:07.357Z,61.85
2019-04-04T21:12:38.362Z,61.39
2019-04-04T21:15:09.647Z,61.34
2019-04-04T21:17:40.628Z,61.19
2019-04-04T21:20:11.990Z,61.99
2019-04-04T21:22:42.975Z,59.96
2019-04-04T21:25:14.249Z,61.32
2019-04-04T21:27:45.369Z,60.99
2019-04-04T21:30:16.737Z,62.67
2019-04-04T21:32:47.730Z,61.28
2019-04-04T21:35:20.088Z,62.25
2019-04-04T21:37:51.171Z,61.98
2019-04-04T21:40:22.375Z,61.33
2019-04-04T21:42:53.469Z,61.56
2019-04-04T21:45:24.514Z,61.10
2019-04-04T21:47:55.641Z,61.57
2019-04-04T21:50:26.678Z,62.78
2019-04-04T21:52:57.709Z,61.86
2019-04-04T21:55:28.733Z,61.74
2019-04-04T21:57:59.790Z,61.44
2019-04-04T22:00:46.487Z,61.53
2019-04-04T22:03:17.925Z,62.63
2019-04-04T22:05:49.047Z,61.39
2019-04-04T22:08:20.125Z,61.69
2019-04-04T22:10:51.198Z,63.15
2019-04-04T22:13:23.806Z,61.88
2019-04-04T22:15:54.976Z,62.83
2019-04-04T22:18:25.971Z,61.44
2019-04-04T22:20:56.991Z,62.25
2019-04-04T22:23:28.076Z,61.90
2019-04-04T22:25:59.287Z,64.21
2019-04-04T22:28:30.330Z,63.17
2019-04-04T22:31:01.362Z,61.78
2019-04-04T22:33:32.435Z,62.34
2019-04-04T22:36:04.713Z,62.31
2019-04-04T22:38:35.713Z,62.22
2019-04-04T22:41:06.807Z,61.76
2019-04-04T22:43:37.823Z,62.26
2019-04-04T22:46:09.415Z,62.32
2019-04-04T22:48:40.409Z,63.15
2019-04-04T22:51:11.449Z,62.96
2019-04-04T22:53:42.461Z,62.00
2019-04-04T22:56:13.554Z,61.42
2019-04-04T22:58:44.579Z,62.05
2019-04-04T23:01:15.655Z,62.76
2019-04-04T23:03:46.669Z,62.32
2019-04-04T23:06:17.691Z,62.80
2019-04-04T23:08:48.719Z,61.88
2019-04-04T23:11:19.725Z,64.28
2019-04-04T23:13:50.710Z,63.20
2019-04-04T23:16:21.717Z,63.27
2019-04-04T23:18:52.699Z,62.94
2019-04-04T23:21:23.798Z,63.45
2019-04-04T23:23:54.761Z,63.26
2019-04-04T23:26:25.819Z,63.01
2019-04-04T23:28:56.820Z,63.07
2019-04-04T23:31:28.012Z,63.87
2019-04-04T23:33:59.005Z,63.84
2019-04-04T23:36:35.070Z,63.27
2019-04-04T23:39:02.967Z,63.38
2019-04-04T23:41:35.638Z,63.68
2019-04-04T23:44:06.695Z,65.60
2019-04-04T23:46:37.719Z,65.41
2019-04-04T23:49:08.773Z,65.74
2019-04-04T23:51:39.801Z,63.99
2019-04-04T23:54:10.817Z,64.40
2019-04-04T23:56:41.817Z,64.18
2019-04-04T23:59:12.815Z,64.74
